Nerlerit Inaat

KL  EN  DA
ASIAQ
Weather Now GREENLAND SURVEY
Updated [WGT/WGST] Temperature [°C] Wind [m/s] Air pressure [hPa] Relative humidity [%] Precipitation [mm]
Present Wind chill Speed Max
19.10 00:00-6,00,01,3 ⇘2,0101261n/a
18.10 23:00-6,2-8,61,4 ⇒4,0101266n/a
18.10 22:00-8,10,00,2 ⇑0,9101375n/a
18.10 21:00-6,20,00,3 ⇒0,7101372n/a
18.10 20:00-5,90,00,9 ⇗1,1101370n/a
18.10 19:00-5,2-7,71,5 ⇒2,4101468n/a
18.10 18:00-5,50,00,9 ⇗1,2101467n/a
18.10 17:00-4,20,01,3 ⇗1,4101565n/a
18.10 16:00-4,20,01,3 ⇑1,5101560n/a
18.10 15:00-4,10,01,2 ⇑1,6101559n/a
18.10 14:00-3,60,00,8 ⇑1,3101658n/a
18.10 13:00-3,8-6,31,6 ⇘2,2101662n/a
18.10 12:00-3,7-6,51,8 ⇓2,3101765n/a
18.10 11:00-4,40,01,1 ⇙1,5101869n/a
18.10 10:00-4,40,00,9 ⇐1,5101871n/a
18.10 09:00-5,20,01,2 ⇖2,5101961n/a
18.10 08:00-7,50,01,3 ⇑1,9101969n/a
18.10 07:00-6,1-11,33,5 ⇘4,0101965n/a
18.10 06:00-7,4-10,01,4 ⇑2,0102066n/a
18.10 05:00-7,3-11,52,4 ⇓4,3102065n/a
18.10 04:00-6,90,00,8 ⇓1,7102065n/a
18.10 03:00-6,4-11,02,8 ⇓4,4102062n/a
18.10 02:00-6,7-11,83,2 ⇓4,5102070n/a
18.10 01:00-6,4-9,11,5 ⇓2,8102062n/a
18.10 00:00-6,4-11,43,2 ⇘5,8102063n/a
Position: (70.75,-22.65)

[Back]